sensor_id;sensor_type;location;lat;lon;timestamp;pressure;altitude;pressure_sealevel;temperature;humidity
19259;BME280;9763;48.780;9.212;2023-01-29T00:03:06;99501.22;;;5.59;69.03
19259;BME280;9763;48.780;9.212;2023-01-29T00:06:30;99500.34;;;5.60;69.13
19259;BME280;9763;48.780;9.212;2023-01-29T00:09:53;99502.09;;;5.59;68.70
19259;BME280;9763;48.780;9.212;2023-01-29T00:13:17;99495.97;;;5.62;69.13
19259;BME280;9763;48.780;9.212;2023-01-29T00:16:41;99504.59;;;5.62;68.63
19259;BME280;9763;48.780;9.212;2023-01-29T00:20:08;99497.69;;;5.63;69.17
19259;BME280;9763;48.780;9.212;2023-01-29T00:23:32;99495.13;;;5.61;68.70
19259;BME280;9763;48.780;9.212;2023-01-29T00:26:55;99489.88;;;5.64;68.68
19259;BME280;9763;48.780;9.212;2023-01-29T00:30:20;99499.38;;;5.64;68.98
19259;BME280;9763;48.780;9.212;2023-01-29T00:33:45;99496.84;;;5.62;69.02
19259;BME280;9763;48.780;9.212;2023-01-29T00:37:10;99491.69;;;5.61;68.89
19259;BME280;9763;48.780;9.212;2023-01-29T00:40:37;99489.03;;;5.64;68.98
19259;BME280;9763;48.780;9.212;2023-01-29T00:44:19;99488.19;;;5.63;68.63
19259;BME280;9763;48.780;9.212;2023-01-29T00:48:00;99493.41;;;5.62;69.04
19259;BME280;9763;48.780;9.212;2023-01-29T00:51:23;99488.25;;;5.60;69.01
19259;BME280;9763;48.780;9.212;2023-01-29T00:54:48;99490.88;;;5.59;68.80
19259;BME280;9763;48.780;9.212;2023-01-29T00:58:12;99494.34;;;5.58;68.48
19259;BME280;9763;48.780;9.212;2023-01-29T01:01:43;99492.72;;;5.55;69.04
19259;BME280;9763;48.780;9.212;2023-01-29T01:05:24;99496.13;;;5.56;68.60
19259;BME280;9763;48.780;9.212;2023-01-29T01:08:48;99488.38;;;5.56;68.85
19259;BME280;9763;48.780;9.212;2023-01-29T01:12:32;99494.47;;;5.55;69.07
19259;BME280;9763;48.780;9.212;2023-01-29T01:15:55;99492.81;;;5.52;68.99
19259;BME280;9763;48.780;9.212;2023-01-29T01:19:19;99498.00;;;5.51;68.84
19259;BME280;9763;48.780;9.212;2023-01-29T01:22:43;99485.09;;;5.49;69.19
19259;BME280;9763;48.780;9.212;2023-01-29T01:26:10;99492.88;;;5.49;69.21
19259;BME280;9763;48.780;9.212;2023-01-29T01:29:35;99486.84;;;5.49;69.22
19259;BME280;9763;48.780;9.212;2023-01-29T01:32:59;99484.25;;;5.49;69.03
19259;BME280;9763;48.780;9.212;2023-01-29T01:36:23;99490.28;;;5.49;69.03
19259;BME280;9763;48.780;9.212;2023-01-29T01:39:47;99494.66;;;5.47;68.81
19259;BME280;9763;48.780;9.212;2023-01-29T01:43:12;99492.19;;;5.42;68.65
19259;BME280;9763;48.780;9.212;2023-01-29T01:46:37;99489.88;;;5.32;68.74
19259;BME280;9763;48.780;9.212;2023-01-29T01:50:06;99487.44;;;5.27;68.74
19259;BME280;9763;48.780;9.212;2023-01-29T01:53:35;99479.78;;;5.23;68.98
19259;BME280;9763;48.780;9.212;2023-01-29T01:57:02;99473.00;;;5.19;68.59
19259;BME280;9763;48.780;9.212;2023-01-29T02:00:33;99477.47;;;5.12;68.76
19259;BME280;9763;48.780;9.212;2023-01-29T02:04:00;99487.13;;;5.05;69.07
19259;BME280;9763;48.780;9.212;2023-01-29T02:07:44;99482.13;;;4.98;69.00
19259;BME280;9763;48.780;9.212;2023-01-29T02:11:26;99487.34;;;4.96;68.58
19259;BME280;9763;48.780;9.212;2023-01-29T02:14:50;99496.91;;;4.94;69.48
19259;BME280;9763;48.780;9.212;2023-01-29T02:18:16;99494.31;;;4.94;69.72
19259;BME280;9763;48.780;9.212;2023-01-29T02:26:39;99498.72;;;4.91;68.84
19259;BME280;9763;48.780;9.212;2023-01-29T02:30:18;99499.59;;;4.90;69.17
19259;BME280;9763;48.780;9.212;2023-01-29T02:33:59;99493.81;;;4.80;68.83
19259;BME280;9763;48.780;9.212;2023-01-29T02:42:34;99492.78;;;4.86;69.58
19259;BME280;9763;48.780;9.212;2023-01-29T02:46:10;99499.69;;;4.85;69.38
19259;BME280;9763;48.780;9.212;2023-01-29T02:49:43;99504.84;;;4.87;69.00
19259;BME280;9763;48.780;9.212;2023-01-29T02:53:11;99503.06;;;4.89;68.82
19259;BME280;9763;48.780;9.212;2023-01-29T02:56:42;99500.56;;;4.84;68.76
19259;BME280;9763;48.780;9.212;2023-01-29T03:00:13;99489.50;;;4.79;68.56
19259;BME280;9763;48.780;9.212;2023-01-29T03:03:44;99484.38;;;4.78;68.67
19259;BME280;9763;48.780;9.212;2023-01-29T03:07:20;99486.22;;;4.72;68.68
19259;BME280;9763;48.780;9.212;2023-01-29T03:11:03;99492.38;;;4.68;69.16
19259;BME280;9763;48.780;9.212;2023-01-29T03:14:31;99495.84;;;4.66;69.01
19259;BME280;9763;48.780;9.212;2023-01-29T03:18:24;99491.53;;;4.66;68.68
19259;BME280;9763;48.780;9.212;2023-01-29T03:21:57;99486.47;;;4.62;69.06
19259;BME280;9763;48.780;9.212;2023-01-29T03:25:26;99483.94;;;4.59;69.24
19259;BME280;9763;48.780;9.212;2023-01-29T03:29:11;99490.94;;;4.55;68.63
19259;BME280;9763;48.780;9.212;2023-01-29T03:32:55;99488.44;;;4.51;68.86
19259;BME280;9763;48.780;9.212;2023-01-29T03:36:28;99480.69;;;4.51;68.98
19259;BME280;9763;48.780;9.212;2023-01-29T03:40:01;99484.09;;;4.53;69.37
19259;BME280;9763;48.780;9.212;2023-01-29T03:43:30;99490.91;;;4.57;69.23
19259;BME280;9763;48.780;9.212;2023-01-29T03:47:04;99480.41;;;4.63;68.91
19259;BME280;9763;48.780;9.212;2023-01-29T03:50:36;99486.25;;;4.71;69.42
19259;BME280;9763;48.780;9.212;2023-01-29T03:54:07;99488.78;;;4.72;68.67
19259;BME280;9763;48.780;9.212;2023-01-29T03:57:40;99486.19;;;4.74;69.16
19259;BME280;9763;48.780;9.212;2023-01-29T04:01:15;99483.59;;;4.74;68.88
19259;BME280;9763;48.780;9.212;2023-01-29T04:04:44;99488.72;;;4.76;68.88
19259;BME280;9763;48.780;9.212;2023-01-29T04:08:14;99497.28;;;4.79;69.06
19259;BME280;9763;48.780;9.212;2023-01-29T04:11:46;99505.75;;;4.84;69.31
19259;BME280;9763;48.780;9.212;2023-01-29T04:15:14;99498.00;;;4.84;68.88
19259;BME280;9763;48.780;9.212;2023-01-29T04:18:42;99492.94;;;4.80;68.34
19259;BME280;9763;48.780;9.212;2023-01-29T04:22:11;99494.00;;;4.71;68.86
19259;BME280;9763;48.780;9.212;2023-01-29T04:25:43;99495.78;;;4.69;68.53
19259;BME280;9763;48.780;9.212;2023-01-29T04:29:27;99505.19;;;4.71;69.09
19259;BME280;9763;48.780;9.212;2023-01-29T04:33:05;99502.56;;;4.73;69.21
19259;BME280;9763;48.780;9.212;2023-01-29T04:36:35;99500.78;;;4.77;68.84
19259;BME280;9763;48.780;9.212;2023-01-29T04:40:14;99503.28;;;4.80;68.37
19259;BME280;9763;48.780;9.212;2023-01-29T04:43:44;99488.59;;;4.82;69.02
19259;BME280;9763;48.780;9.212;2023-01-29T04:47:19;99485.13;;;4.83;68.55
19259;BME280;9763;48.780;9.212;2023-01-29T04:50:50;99487.72;;;4.83;68.38
19259;BME280;9763;48.780;9.212;2023-01-29T04:54:22;99497.13;;;4.84;68.69
19259;BME280;9763;48.780;9.212;2023-01-29T04:58:00;99493.66;;;4.85;68.60
19259;BME280;9763;48.780;9.212;2023-01-29T05:01:29;99500.50;;;4.87;68.95
19259;BME280;9763;48.780;9.212;2023-01-29T05:04:56;99485.06;;;4.84;68.49
19259;BME280;9763;48.780;9.212;2023-01-29T05:08:25;99501.34;;;4.88;68.33
19259;BME280;9763;48.780;9.212;2023-01-29T05:11:50;99502.19;;;4.90;68.31
19259;BME280;9763;48.780;9.212;2023-01-29T05:15:18;99502.28;;;4.85;68.90
19259;BME280;9763;48.780;9.212;2023-01-29T05:18:43;99494.56;;;4.84;68.51
19259;BME280;9763;48.780;9.212;2023-01-29T05:22:09;99495.41;;;4.84;68.34
19259;BME280;9763;48.780;9.212;2023-01-29T05:25:35;99493.69;;;4.83;68.39
19259;BME280;9763;48.780;9.212;2023-01-29T05:28:59;99505.84;;;4.81;68.86
19259;BME280;9763;48.780;9.212;2023-01-29T05:32:22;99511.03;;;4.81;68.31
19259;BME280;9763;48.780;9.212;2023-01-29T05:35:46;99513.56;;;4.83;68.73
19259;BME280;9763;48.780;9.212;2023-01-29T05:39:10;99504.19;;;4.79;68.36
19259;BME280;9763;48.780;9.212;2023-01-29T05:42:34;99499.84;;;4.79;69.01
19259;BME280;9763;48.780;9.212;2023-01-29T05:46:00;99490.41;;;4.78;68.34
19259;BME280;9763;48.780;9.212;2023-01-29T05:49:24;99496.41;;;4.79;68.43
19259;BME280;9763;48.780;9.212;2023-01-29T05:52:48;99478.28;;;4.80;68.23
19259;BME280;9763;48.780;9.212;2023-01-29T05:56:12;99455.03;;;4.79;68.22
19259;BME280;9763;48.780;9.212;2023-01-29T05:59:36;99432.22;;;4.60;68.85
19259;BME280;9763;48.780;9.212;2023-01-29T06:03:00;99448.16;;;4.78;68.55
19259;BME280;9763;48.780;9.212;2023-01-29T06:06:24;99459.41;;;4.77;68.48
19259;BME280;9763;48.780;9.212;2023-01-29T06:09:48;99469.75;;;4.77;68.29
19259;BME280;9763;48.780;9.212;2023-01-29T06:13:12;99466.31;;;4.76;68.24
19259;BME280;9763;48.780;9.212;2023-01-29T06:16:37;99471.44;;;4.78;68.26
19259;BME280;9763;48.780;9.212;2023-01-29T06:20:03;99476.59;;;4.79;68.07
19259;BME280;9763;48.780;9.212;2023-01-29T06:23:27;99474.06;;;4.76;68.15
19259;BME280;9763;48.780;9.212;2023-01-29T06:26:51;99469.94;;;4.69;68.69
19259;BME280;9763;48.780;9.212;2023-01-29T06:30:15;99481.03;;;4.72;68.17
19259;BME280;9763;48.780;9.212;2023-01-29T06:33:41;99485.31;;;4.74;68.61
19259;BME280;9763;48.780;9.212;2023-01-29T06:37:05;99470.81;;;4.68;68.29
19259;BME280;9763;48.780;9.212;2023-01-29T06:40:29;99488.72;;;4.76;68.25
19259;BME280;9763;48.780;9.212;2023-01-29T06:43:53;99493.88;;;4.77;68.22
19259;BME280;9763;48.780;9.212;2023-01-29T06:47:17;99491.25;;;4.79;68.03
19259;BME280;9763;48.780;9.212;2023-01-29T06:50:43;99486.09;;;4.77;68.21
19259;BME280;9763;48.780;9.212;2023-01-29T06:54:09;99487.84;;;4.77;68.08
19259;BME280;9763;48.780;9.212;2023-01-29T06:57:32;99487.03;;;4.75;68.60
19259;BME280;9763;48.780;9.212;2023-01-29T07:01:02;99487.84;;;4.77;68.04
19259;BME280;9763;48.780;9.212;2023-01-29T07:04:27;99495.63;;;4.75;68.15
19259;BME280;9763;48.780;9.212;2023-01-29T07:07:52;99500.00;;;4.73;68.37
19259;BME280;9763;48.780;9.212;2023-01-29T07:11:16;99501.72;;;4.72;68.24
19259;BME280;9763;48.780;9.212;2023-01-29T07:14:40;99495.63;;;4.75;68.47
19259;BME280;9763;48.780;9.212;2023-01-29T07:18:04;99494.78;;;4.75;68.05
19259;BME280;9763;48.780;9.212;2023-01-29T07:21:33;99503.34;;;4.77;68.14
19259;BME280;9763;48.780;9.212;2023-01-29T07:24:58;99504.25;;;4.76;68.09
19259;BME280;9763;48.780;9.212;2023-01-29T07:28:23;99505.94;;;4.77;68.11
19259;BME280;9763;48.780;9.212;2023-01-29T07:31:47;99513.66;;;4.78;67.91
19259;BME280;9763;48.780;9.212;2023-01-29T07:35:10;99503.25;;;4.81;68.05
19259;BME280;9763;48.780;9.212;2023-01-29T07:38:34;99510.91;;;4.84;67.97
19259;BME280;9763;48.780;9.212;2023-01-29T07:41:59;99520.31;;;4.88;68.60
19259;BME280;9763;48.780;9.212;2023-01-29T07:45:23;99518.47;;;4.93;67.90
19259;BME280;9763;48.780;9.212;2023-01-29T07:48:47;99517.50;;;4.97;67.91
19259;BME280;9763;48.780;9.212;2023-01-29T07:52:11;99526.06;;;4.99;68.28
19259;BME280;9763;48.780;9.212;2023-01-29T07:55:35;99528.59;;;5.02;67.99
19259;BME280;9763;48.780;9.212;2023-01-29T07:59:00;99538.03;;;5.05;67.93
19259;BME280;9763;48.780;9.212;2023-01-29T08:02:23;99541.47;;;5.05;67.97
19259;BME280;9763;48.780;9.212;2023-01-29T08:05:48;99537.13;;;5.06;67.90
19259;BME280;9763;48.780;9.212;2023-01-29T08:09:12;99531.09;;;5.07;68.38
19259;BME280;9763;48.780;9.212;2023-01-29T08:12:36;99521.44;;;5.12;67.88
19259;BME280;9763;48.780;9.212;2023-01-29T08:16:02;99524.00;;;5.14;67.77
19259;BME280;9763;48.780;9.212;2023-01-29T08:19:26;99528.34;;;5.12;67.92
19259;BME280;9763;48.780;9.212;2023-01-29T08:22:58;99534.31;;;5.15;67.54
19259;BME280;9763;48.780;9.212;2023-01-29T08:26:23;99536.78;;;5.20;67.76
19259;BME280;9763;48.780;9.212;2023-01-29T08:29:48;99549.53;;;5.27;68.07
19259;BME280;9763;48.780;9.212;2023-01-29T08:33:13;99550.25;;;5.32;68.22
19259;BME280;9763;48.780;9.212;2023-01-29T08:36:39;99551.88;;;5.36;67.59
19259;BME280;9763;48.780;9.212;2023-01-29T08:40:03;99550.06;;;5.40;68.01
19259;BME280;9763;48.780;9.212;2023-01-29T08:43:28;99543.91;;;5.44;67.92
19259;BME280;9763;48.780;9.212;2023-01-29T08:46:51;99555.84;;;5.50;68.13
19259;BME280;9763;48.780;9.212;2023-01-29T08:50:17;99556.63;;;5.53;68.25
19259;BME280;9763;48.780;9.212;2023-01-29T08:53:42;99562.53;;;5.58;68.40
19259;BME280;9763;48.780;9.212;2023-01-29T08:57:06;99557.28;;;5.61;68.20
19259;BME280;9763;48.780;9.212;2023-01-29T09:00:30;99557.22;;;5.64;67.98
19259;BME280;9763;48.780;9.212;2023-01-29T09:03:53;99557.94;;;5.68;68.06
19259;BME280;9763;48.780;9.212;2023-01-29T09:07:19;99550.97;;;5.71;68.10
19259;BME280;9763;48.780;9.212;2023-01-29T09:10:44;99556.03;;;5.76;67.70
19259;BME280;9763;48.780;9.212;2023-01-29T09:14:08;99560.16;;;5.82;67.49
19259;BME280;9763;48.780;9.212;2023-01-29T09:17:34;99561.75;;;5.87;67.84
19259;BME280;9763;48.780;9.212;2023-01-29T09:20:58;99569.38;;;5.93;67.40
19259;BME280;9763;48.780;9.212;2023-01-29T09:24:24;99563.16;;;6.00;67.74
19259;BME280;9763;48.780;9.212;2023-01-29T09:27:48;99559.56;;;6.04;67.58
19259;BME280;9763;48.780;9.212;2023-01-29T09:31:12;99575.00;;;6.09;67.59
19259;BME280;9763;48.780;9.212;2023-01-29T09:34:36;99570.63;;;6.11;67.54
19259;BME280;9763;48.780;9.212;2023-01-29T09:38:00;99562.81;;;6.12;67.53
19259;BME280;9763;48.780;9.212;2023-01-29T09:41:39;99567.94;;;6.14;67.28
19259;BME280;9763;48.780;9.212;2023-01-29T09:45:13;99555.78;;;6.16;67.65
19259;BME280;9763;48.780;9.212;2023-01-29T09:48:39;99553.03;;;6.22;67.14
19259;BME280;9763;48.780;9.212;2023-01-29T09:52:07;99552.81;;;6.28;67.48
19259;BME280;9763;48.780;9.212;2023-01-29T09:55:38;99536.47;;;6.28;66.86
19259;BME280;9763;48.780;9.212;2023-01-29T09:59:10;99525.09;;;6.32;67.00
19259;BME280;9763;48.780;9.212;2023-01-29T10:02:50;99513.66;;;6.39;67.01
19259;BME280;9763;48.780;9.212;2023-01-29T10:06:26;99502.81;;;6.53;66.70
19259;BME280;9763;48.780;9.212;2023-01-29T10:10:12;99492.66;;;6.74;66.90
19259;BME280;9763;48.780;9.212;2023-01-29T10:13:46;99491.59;;;7.06;66.77
19259;BME280;9763;48.780;9.212;2023-01-29T10:17:34;99479.19;;;7.39;67.16
19259;BME280;9763;48.780;9.212;2023-01-29T10:21:12;99479.50;;;7.55;66.39
19259;BME280;9763;48.780;9.212;2023-01-29T10:24:47;99478.28;;;7.65;66.37
19259;BME280;9763;48.780;9.212;2023-01-29T10:28:17;99481.56;;;7.70;66.72
19259;BME280;9763;48.780;9.212;2023-01-29T10:31:41;99492.69;;;7.74;66.35
19259;BME280;9763;48.780;9.212;2023-01-29T10:35:19;99494.44;;;7.73;66.03
19259;BME280;9763;48.780;9.212;2023-01-29T10:38:46;99493.72;;;7.70;66.52
19259;BME280;9763;48.780;9.212;2023-01-29T10:42:24;99490.41;;;7.65;66.32
19259;BME280;9763;48.780;9.212;2023-01-29T10:45:59;99491.97;;;7.70;66.27
19259;BME280;9763;48.780;9.212;2023-01-29T10:49:44;99498.22;;;7.88;66.79
19259;BME280;9763;48.780;9.212;2023-01-29T10:53:26;99494.38;;;7.98;66.40
19259;BME280;9763;48.780;9.212;2023-01-29T10:57:08;99482.69;;;7.86;66.53
19259;BME280;9763;48.780;9.212;2023-01-29T11:00:38;99484.69;;;7.80;66.52
19259;BME280;9763;48.780;9.212;2023-01-29T11:04:08;99482.03;;;7.81;66.45
19259;BME280;9763;48.780;9.212;2023-01-29T11:07:33;99486.31;;;7.82;65.87
19259;BME280;9763;48.780;9.212;2023-01-29T11:11:03;99488.75;;;7.87;66.14
19259;BME280;9763;48.780;9.212;2023-01-29T11:14:32;99491.88;;;7.97;66.40
19259;BME280;9763;48.780;9.212;2023-01-29T11:18:03;99483.84;;;8.03;66.18
19259;BME280;9763;48.780;9.212;2023-01-29T11:21:28;99474.97;;;8.08;65.87
19259;BME280;9763;48.780;9.212;2023-01-29T11:25:09;99467.94;;;8.10;65.78
19259;BME280;9763;48.780;9.212;2023-01-29T11:28:40;99477.16;;;8.19;66.17
19259;BME280;9763;48.780;9.212;2023-01-29T11:32:06;99461.34;;;8.23;66.56
19259;BME280;9763;48.780;9.212;2023-01-29T11:35:30;99455.25;;;8.24;66.50
19259;BME280;9763;48.780;9.212;2023-01-29T11:39:17;99443.84;;;8.28;66.23
19259;BME280;9763;48.780;9.212;2023-01-29T11:42:40;99447.06;;;8.35;65.60
19259;BME280;9763;48.780;9.212;2023-01-29T11:46:12;99439.81;;;8.43;66.04
19259;BME280;9763;48.780;9.212;2023-01-29T11:49:38;99441.31;;;8.49;65.34
19259;BME280;9763;48.780;9.212;2023-01-29T11:53:03;99439.34;;;8.55;65.42
19259;BME280;9763;48.780;9.212;2023-01-29T11:56:31;99441.72;;;8.60;65.40
19259;BME280;9763;48.780;9.212;2023-01-29T11:59:59;99442.69;;;8.57;65.38
19259;BME280;9763;48.780;9.212;2023-01-29T12:03:34;99433.03;;;8.61;65.94
19259;BME280;9763;48.780;9.212;2023-01-29T12:07:00;99413.72;;;8.66;65.75
19259;BME280;9763;48.780;9.212;2023-01-29T12:10:32;99407.56;;;8.69;65.61
19259;BME280;9763;48.780;9.212;2023-01-29T12:13:58;99391.78;;;8.72;65.69
19259;BME280;9763;48.780;9.212;2023-01-29T12:17:25;99369.53;;;8.65;65.72
19259;BME280;9763;48.780;9.212;2023-01-29T12:20:55;99362.97;;;8.56;65.47
19259;BME280;9763;48.780;9.212;2023-01-29T12:24:33;99367.13;;;8.60;65.45
19259;BME280;9763;48.780;9.212;2023-01-29T12:28:03;99363.88;;;8.55;65.34
19259;BME280;9763;48.780;9.212;2023-01-29T12:31:41;99350.16;;;8.52;65.51
19259;BME280;9763;48.780;9.212;2023-01-29T12:35:13;99333.94;;;8.45;66.02
19259;BME280;9763;48.780;9.212;2023-01-29T12:38:44;99327.38;;;8.37;66.25
19259;BME280;9763;48.780;9.212;2023-01-29T12:42:16;99323.22;;;8.33;66.35
19259;BME280;9763;48.780;9.212;2023-01-29T12:45:45;99322.63;;;8.24;66.43
19259;BME280;9763;48.780;9.212;2023-01-29T12:49:16;99298.25;;;8.07;66.46
19259;BME280;9763;48.780;9.212;2023-01-29T12:52:43;99309.09;;;8.16;66.01
19259;BME280;9763;48.780;9.212;2023-01-29T12:56:14;99303.97;;;8.15;66.30
19259;BME280;9763;48.780;9.212;2023-01-29T12:59:47;99299.63;;;8.15;66.51
19259;BME280;9763;48.780;9.212;2023-01-29T13:03:18;99294.28;;;8.18;65.92
19259;BME280;9763;48.780;9.212;2023-01-29T13:06:49;99306.19;;;8.24;66.38
19259;BME280;9763;48.780;9.212;2023-01-29T13:10:17;99304.31;;;8.27;65.92
19259;BME280;9763;48.780;9.212;2023-01-29T13:13:50;99289.41;;;8.33;65.32
19259;BME280;9763;48.780;9.212;2023-01-29T13:17:22;99289.19;;;8.37;65.39
19259;BME280;9763;48.780;9.212;2023-01-29T13:20:48;99269.59;;;8.28;64.94
19259;BME280;9763;48.780;9.212;2023-01-29T13:24:16;99274.47;;;8.16;65.75
19259;BME280;9763;48.780;9.212;2023-01-29T13:27:42;99273.09;;;8.07;65.56
19259;BME280;9763;48.780;9.212;2023-01-29T13:31:22;99276.88;;;7.99;65.89
19259;BME280;9763;48.780;9.212;2023-01-29T13:34:49;99280.81;;;7.87;65.55
19259;BME280;9763;48.780;9.212;2023-01-29T13:38:23;99277.66;;;7.80;66.41
19259;BME280;9763;48.780;9.212;2023-01-29T13:41:50;99283.63;;;7.82;66.00
19259;BME280;9763;48.780;9.212;2023-01-29T13:45:21;99285.00;;;7.91;65.90
19259;BME280;9763;48.780;9.212;2023-01-29T13:48:49;99281.50;;;7.92;66.11
19259;BME280;9763;48.780;9.212;2023-01-29T13:52:29;99283.09;;;7.96;65.66
19259;BME280;9763;48.780;9.212;2023-01-29T13:55:54;99286.59;;;7.95;65.98
19259;BME280;9763;48.780;9.212;2023-01-29T13:59:51;99286.31;;;8.01;66.10
19259;BME280;9763;48.780;9.212;2023-01-29T14:03:51;99280.91;;;8.07;66.31
19259;BME280;9763;48.780;9.212;2023-01-29T14:07:55;99282.38;;;8.13;66.33
19259;BME280;9763;48.780;9.212;2023-01-29T14:11:42;99286.78;;;8.11;65.75
19259;BME280;9763;48.780;9.212;2023-01-29T14:15:21;99277.75;;;7.99;65.46
19259;BME280;9763;48.780;9.212;2023-01-29T14:18:48;99284.09;;;7.92;65.72
19259;BME280;9763;48.780;9.212;2023-01-29T14:22:20;99278.22;;;7.87;65.88
19259;BME280;9763;48.780;9.212;2023-01-29T14:25:45;99283.47;;;7.85;66.33
19259;BME280;9763;48.780;9.212;2023-01-29T14:29:17;99284.34;;;7.86;65.69
19259;BME280;9763;48.780;9.212;2023-01-29T14:32:57;99274.72;;;7.88;65.85
19259;BME280;9763;48.780;9.212;2023-01-29T14:36:21;99271.22;;;7.89;65.89
19259;BME280;9763;48.780;9.212;2023-01-29T14:39:50;99268.56;;;7.90;65.46
19259;BME280;9763;48.780;9.212;2023-01-29T14:43:17;99272.34;;;7.83;65.69
19259;BME280;9763;48.780;9.212;2023-01-29T14:46:44;99276.44;;;7.67;65.48
19259;BME280;9763;48.780;9.212;2023-01-29T14:54:16;99280.09;;;7.40;66.32
19259;BME280;9763;48.780;9.212;2023-01-29T14:57:42;99279.66;;;7.29;66.38
19259;BME280;9763;48.780;9.212;2023-01-29T15:01:17;99269.78;;;7.15;66.01
19259;BME280;9763;48.780;9.212;2023-01-29T15:04:46;99265.03;;;7.03;66.13
19259;BME280;9763;48.780;9.212;2023-01-29T15:08:19;99267.09;;;6.95;66.60
19259;BME280;9763;48.780;9.212;2023-01-29T15:11:57;99275.31;;;6.82;66.13
19259;BME280;9763;48.780;9.212;2023-01-29T15:15:32;99283.47;;;6.72;66.07
19259;BME280;9763;48.780;9.212;2023-01-29T15:19:13;99276.88;;;6.63;66.02
19259;BME280;9763;48.780;9.212;2023-01-29T15:22:42;99275.38;;;6.56;66.13
19259;BME280;9763;48.780;9.212;2023-01-29T15:26:11;99265.28;;;6.48;66.69
19259;BME280;9763;48.780;9.212;2023-01-29T15:29:40;99268.91;;;6.43;66.33
19259;BME280;9763;48.780;9.212;2023-01-29T15:33:08;99279.56;;;6.35;66.31
19259;BME280;9763;48.780;9.212;2023-01-29T15:36:33;99266.97;;;6.25;66.60
19259;BME280;9763;48.780;9.212;2023-01-29T15:40:03;99261.19;;;6.17;66.79
19259;BME280;9763;48.780;9.212;2023-01-29T15:43:30;99267.47;;;6.09;66.25
19259;BME280;9763;48.780;9.212;2023-01-29T15:46:58;99276.34;;;6.02;66.73
19259;BME280;9763;48.780;9.212;2023-01-29T15:50:23;99279.22;;;5.93;66.84
19259;BME280;9763;48.780;9.212;2023-01-29T15:53:50;99282.94;;;5.85;66.81
19259;BME280;9763;48.780;9.212;2023-01-29T15:57:20;99284.03;;;5.77;66.59
19259;BME280;9763;48.780;9.212;2023-01-29T16:00:49;99285.94;;;5.71;66.70
19259;BME280;9763;48.780;9.212;2023-01-29T16:04:18;99275.88;;;5.62;67.04
19259;BME280;9763;48.780;9.212;2023-01-29T16:07:44;99270.97;;;5.54;67.08
19259;BME280;9763;48.780;9.212;2023-01-29T16:11:09;99270.28;;;5.48;67.05
19259;BME280;9763;48.780;9.212;2023-01-29T16:14:33;99267.09;;;5.39;67.09
19259;BME280;9763;48.780;9.212;2023-01-29T16:17:57;99258.75;;;5.30;67.04
19259;BME280;9763;48.780;9.212;2023-01-29T16:21:29;99269.19;;;5.27;66.50
19259;BME280;9763;48.780;9.212;2023-01-29T16:24:54;99256.56;;;5.16;66.95
19259;BME280;9763;48.780;9.212;2023-01-29T16:28:19;99267.19;;;5.07;67.12
19259;BME280;9763;48.780;9.212;2023-01-29T16:31:47;99269.22;;;4.96;66.65
19259;BME280;9763;48.780;9.212;2023-01-29T16:35:14;99272.06;;;4.87;66.64
19259;BME280;9763;48.780;9.212;2023-01-29T16:38:41;99274.13;;;4.76;66.71
19259;BME280;9763;48.780;9.212;2023-01-29T16:42:33;99276.97;;;4.66;66.56
19259;BME280;9763;48.780;9.212;2023-01-29T16:46:04;99287.47;;;4.59;67.09
19259;BME280;9763;48.780;9.212;2023-01-29T16:49:48;99278.38;;;4.46;67.10
19259;BME280;9763;48.780;9.212;2023-01-29T16:53:16;99285.56;;;4.34;67.11
19259;BME280;9763;48.780;9.212;2023-01-29T16:56:44;99284.09;;;4.24;66.73
19259;BME280;9763;48.780;9.212;2023-01-29T17:00:18;99293.66;;;4.21;66.97
19259;BME280;9763;48.780;9.212;2023-01-29T17:03:46;99290.34;;;4.16;67.47
19259;BME280;9763;48.780;9.212;2023-01-29T17:07:15;99297.31;;;4.12;66.98
19259;BME280;9763;48.780;9.212;2023-01-29T17:10:46;99300.84;;;4.10;66.97
19259;BME280;9763;48.780;9.212;2023-01-29T17:14:18;99300.94;;;4.05;67.00
19259;BME280;9763;48.780;9.212;2023-01-29T17:17:42;99310.47;;;4.03;66.90
19259;BME280;9763;48.780;9.212;2023-01-29T17:21:06;99307.16;;;3.98;67.31
19259;BME280;9763;48.780;9.212;2023-01-29T17:24:29;99303.75;;;3.96;67.33
19259;BME280;9763;48.780;9.212;2023-01-29T17:27:54;99302.97;;;3.92;67.43
19259;BME280;9763;48.780;9.212;2023-01-29T17:31:19;99301.31;;;3.90;67.43
19259;BME280;9763;48.780;9.212;2023-01-29T17:34:44;99291.97;;;3.86;67.53
19259;BME280;9763;48.780;9.212;2023-01-29T17:38:10;99283.41;;;3.84;67.60
19259;BME280;9763;48.780;9.212;2023-01-29T17:41:50;99287.78;;;3.80;67.58
19259;BME280;9763;48.780;9.212;2023-01-29T17:45:14;99284.44;;;3.75;67.40
19259;BME280;9763;48.780;9.212;2023-01-29T17:48:40;99275.91;;;3.73;67.66
19259;BME280;9763;48.780;9.212;2023-01-29T17:52:04;99287.19;;;3.69;67.75
19259;BME280;9763;48.780;9.212;2023-01-29T17:55:28;99294.94;;;3.68;67.39
19259;BME280;9763;48.780;9.212;2023-01-29T17:58:52;99295.00;;;3.65;67.48
19259;BME280;9763;48.780;9.212;2023-01-29T18:02:15;99289.97;;;3.60;67.63
19259;BME280;9763;48.780;9.212;2023-01-29T18:05:52;99285.75;;;3.56;67.78
19259;BME280;9763;48.780;9.212;2023-01-29T18:09:19;99281.56;;;3.50;67.76
19259;BME280;9763;48.780;9.212;2023-01-29T18:12:44;99285.09;;;3.48;67.31
19259;BME280;9763;48.780;9.212;2023-01-29T18:16:07;99285.13;;;3.46;67.69
19259;BME280;9763;48.780;9.212;2023-01-29T18:19:33;99280.88;;;3.44;67.64
19259;BME280;9763;48.780;9.212;2023-01-29T18:22:59;99286.13;;;3.39;67.62
19259;BME280;9763;48.780;9.212;2023-01-29T18:26:25;99279.31;;;3.37;68.03
19259;BME280;9763;48.780;9.212;2023-01-29T18:29:49;99276.75;;;3.37;67.57
19259;BME280;9763;48.780;9.212;2023-01-29T18:33:14;99265.72;;;3.29;67.56
19259;BME280;9763;48.780;9.212;2023-01-29T18:36:38;99276.81;;;3.32;67.78
19259;BME280;9763;48.780;9.212;2023-01-29T18:40:04;99278.56;;;3.32;68.04
19259;BME280;9763;48.780;9.212;2023-01-29T18:43:28;99276.91;;;3.28;67.80
19259;BME280;9763;48.780;9.212;2023-01-29T18:46:52;99266.63;;;3.26;68.36
19259;BME280;9763;48.780;9.212;2023-01-29T18:50:16;99274.47;;;3.23;68.36
19259;BME280;9763;48.780;9.212;2023-01-29T18:53:40;99271.09;;;3.19;68.03
19259;BME280;9763;48.780;9.212;2023-01-29T18:57:05;99273.69;;;3.18;68.04
19259;BME280;9763;48.780;9.212;2023-01-29T19:00:38;99278.84;;;3.18;68.44
19259;BME280;9763;48.780;9.212;2023-01-29T19:04:02;99282.25;;;3.20;68.24
19259;BME280;9763;48.780;9.212;2023-01-29T19:07:25;99278.00;;;3.17;67.77
19259;BME280;9763;48.780;9.212;2023-01-29T19:10:49;99287.44;;;3.18;67.92
19259;BME280;9763;48.780;9.212;2023-01-29T19:14:14;99296.09;;;3.16;67.70